Webcam Richtung Westen

Webcam27

Webcam Richtung Norden

Webcam36

Webcam Richtung Osten

Webcam09

Wetter(Würzburg):
301330Z AUTO 24007G10KT 29KM ////// 03/M02 Q1024
		
Mon 30.11.2020, 13:30 UTC

Sichtweite bis zu 29 km
Wind aus 240° mit 07kt, in Böen bis zu 10kt

Temperatur: 3 °C
Taupunkt: -2 °C
QNH: 1024 hPa
                         Heute        Morgen
                         30.11        01.12
--------------------------------------------
Beginn der Dämmerung     06:18        06:19
Sonnenaufgang            06:55        06:56
Sonnenuntergang          15:23        15:22
Ende der Dämmerung       16:00        15:59

Alle Zeiten in UTC